createdAt,value
2018-12-27T00:02:28.941Z,65.00
2018-12-27T00:05:26.151Z,61.30
2018-12-27T00:08:09.182Z,57.13
2018-12-27T00:10:54.040Z,56.30
2018-12-27T00:13:38.068Z,59.03
2018-12-27T00:16:20.205Z,62.97
2018-12-27T00:19:03.664Z,60.90
2018-12-27T00:21:45.603Z,61.03
2018-12-27T00:24:28.992Z,59.40
2018-12-27T00:27:13.962Z,60.80
2018-12-27T00:30:04.224Z,64.53
2018-12-27T00:32:50.043Z,64.07
2018-12-27T00:35:36.589Z,66.07
2018-12-27T00:38:19.681Z,64.23
2018-12-27T00:41:04.026Z,60.30
2018-12-27T00:43:48.074Z,64.73
2018-12-27T00:46:30.596Z,66.83
2018-12-27T00:49:15.554Z,62.63
2018-12-27T00:51:58.066Z,63.10
2018-12-27T00:54:41.843Z,62.70
2018-12-27T00:57:24.639Z,59.90
2018-12-27T01:00:08.326Z,59.63
2018-12-27T01:02:54.226Z,59.93
2018-12-27T01:05:38.229Z,60.93
2018-12-27T01:08:20.543Z,62.30
2018-12-27T01:11:05.305Z,59.50
2018-12-27T01:13:48.636Z,59.97
2018-12-27T01:16:33.562Z,61.57
2018-12-27T01:19:21.898Z,59.00
2018-12-27T01:22:07.326Z,60.17
2018-12-27T01:24:53.125Z,62.60
2018-12-27T01:27:38.043Z,58.23
2018-12-27T01:30:23.054Z,57.40
2018-12-27T01:33:06.427Z,59.77
2018-12-27T01:35:50.358Z,60.07
2018-12-27T01:38:33.619Z,60.00
2018-12-27T01:41:18.965Z,62.17
2018-12-27T01:46:51.594Z,74.17
2018-12-27T01:49:35.989Z,66.53
2018-12-27T01:52:21.216Z,67.57
2018-12-27T01:55:05.579Z,60.30
2018-12-27T01:57:47.255Z,59.63
2018-12-27T02:00:32.173Z,61.07
2018-12-27T02:03:14.073Z,64.37
2018-12-27T02:06:01.279Z,63.60
2018-12-27T02:08:46.288Z,56.57
2018-12-27T02:11:31.088Z,58.47
2018-12-27T02:14:15.174Z,58.63
2018-12-27T02:16:59.181Z,59.10
2018-12-27T02:19:42.331Z,58.80
2018-12-27T02:22:24.498Z,61.03
2018-12-27T02:25:07.297Z,58.83
2018-12-27T02:27:51.313Z,59.30
2018-12-27T02:30:34.299Z,62.97
2018-12-27T02:33:17.618Z,56.83
2018-12-27T02:36:01.109Z,57.83
2018-12-27T02:38:45.119Z,58.20
2018-12-27T02:41:46.679Z,55.13
2018-12-27T02:44:31.072Z,56.47
2018-12-27T02:47:24.819Z,56.70
2018-12-27T02:50:09.321Z,52.67
2018-12-27T02:52:54.831Z,52.30
2018-12-27T02:55:40.312Z,49.57
2018-12-27T02:58:25.093Z,53.97
2018-12-27T03:01:08.274Z,55.37
2018-12-27T03:03:52.243Z,58.17
2018-12-27T03:06:36.594Z,54.57
2018-12-27T03:09:21.563Z,67.77
2018-12-27T03:12:05.001Z,58.37
2018-12-27T03:14:51.105Z,53.77
2018-12-27T03:17:34.361Z,66.30
2018-12-27T03:20:16.261Z,54.10
2018-12-27T03:22:58.309Z,56.57
2018-12-27T03:25:43.085Z,58.03
2018-12-27T03:28:30.293Z,56.63
2018-12-27T03:31:13.948Z,55.33
2018-12-27T03:33:56.194Z,55.83
2018-12-27T03:36:41.302Z,68.77
2018-12-27T03:39:28.228Z,74.00
2018-12-27T03:42:10.150Z,61.00
2018-12-27T03:44:53.304Z,65.53
2018-12-27T03:47:42.232Z,55.83
2018-12-27T03:50:25.350Z,51.43
2018-12-27T03:53:08.204Z,63.13
2018-12-27T03:55:52.270Z,53.87
2018-12-27T03:58:39.659Z,55.50
2018-12-27T04:01:25.267Z,53.93
2018-12-27T04:04:12.365Z,54.20
2018-12-27T04:07:09.341Z,56.80
2018-12-27T04:09:57.933Z,55.07
2018-12-27T04:12:44.153Z,63.53
2018-12-27T04:15:29.788Z,55.27
2018-12-27T04:18:16.296Z,77.57
2018-12-27T04:21:03.703Z,70.17
2018-12-27T04:23:54.400Z,58.00
2018-12-27T04:26:42.268Z,71.80
2018-12-27T04:29:31.155Z,59.50
2018-12-27T04:32:16.122Z,65.50
2018-12-27T04:35:04.500Z,49.73
2018-12-27T04:37:50.099Z,47.77
2018-12-27T04:40:35.334Z,53.97
2018-12-27T04:43:23.057Z,79.13
2018-12-27T04:46:07.066Z,53.30
2018-12-27T04:48:53.404Z,45.13
2018-12-27T04:51:38.432Z,46.97
2018-12-27T04:54:23.855Z,58.77
2018-12-27T04:57:09.371Z,71.10
2018-12-27T04:59:55.944Z,104.43
2018-12-27T05:02:40.527Z,156.17
2018-12-27T05:05:24.996Z,107.63
2018-12-27T05:08:12.684Z,74.47
2018-12-27T05:11:03.188Z,79.80
2018-12-27T05:13:58.253Z,98.17
2018-12-27T05:16:47.253Z,109.53
2018-12-27T05:19:34.427Z,71.00
2018-12-27T05:22:27.196Z,67.53
2018-12-27T05:25:30.390Z,59.83
2018-12-27T05:28:35.048Z,80.63
2018-12-27T05:31:24.372Z,51.27
2018-12-27T05:34:11.792Z,57.93
2018-12-27T05:36:58.450Z,46.27
2018-12-27T05:39:46.404Z,44.73
2018-12-27T05:42:43.243Z,66.87
2018-12-27T05:45:33.467Z,63.63
2018-12-27T05:48:18.486Z,51.97
2018-12-27T05:51:09.312Z,48.20
2018-12-27T05:54:00.094Z,54.23
2018-12-27T05:57:04.481Z,51.47
2018-12-27T06:00:13.009Z,41.37
2018-12-27T06:03:32.282Z,48.00
2018-12-27T06:06:21.174Z,52.13
2018-12-27T06:09:04.420Z,47.00
2018-12-27T06:11:54.344Z,46.43
2018-12-27T06:14:42.440Z,47.70
2018-12-27T06:17:26.581Z,47.87
2018-12-27T06:20:15.040Z,51.00
2018-12-27T06:22:58.474Z,50.33
2018-12-27T06:25:55.473Z,61.60
2018-12-27T06:28:49.974Z,59.60
2018-12-27T06:31:43.997Z,57.03
2018-12-27T06:34:29.066Z,52.53
2018-12-27T06:37:15.273Z,51.27
2018-12-27T06:40:01.842Z,50.10
2018-12-27T06:42:45.218Z,63.43
2018-12-27T06:45:39.389Z,52.83
2018-12-27T06:48:25.327Z,57.87
2018-12-27T06:51:09.321Z,63.63
2018-12-27T06:53:54.501Z,53.67
2018-12-27T06:56:40.226Z,49.90
2018-12-27T06:59:29.462Z,50.10
2018-12-27T07:02:16.473Z,47.47
2018-12-27T07:05:05.894Z,48.50
2018-12-27T07:07:54.239Z,53.77
2018-12-27T07:10:38.846Z,49.60
2018-12-27T07:13:25.045Z,47.67
2018-12-27T07:16:14.492Z,49.00
2018-12-27T07:19:02.406Z,48.90
2018-12-27T07:21:58.382Z,59.50
2018-12-27T07:24:48.633Z,50.77
2018-12-27T07:27:35.441Z,43.53
2018-12-27T07:30:20.365Z,44.47
2018-12-27T07:33:10.290Z,45.73
2018-12-27T07:35:54.973Z,49.77
2018-12-27T07:38:40.087Z,43.93
2018-12-27T07:41:28.265Z,46.27
2018-12-27T07:44:19.383Z,48.97
2018-12-27T07:47:03.496Z,48.23
2018-12-27T07:49:50.588Z,47.03
2018-12-27T07:52:38.526Z,47.73
2018-12-27T07:55:22.293Z,45.37
2018-12-27T07:58:06.518Z,52.43
2018-12-27T08:00:53.460Z,47.80
2018-12-27T08:03:35.959Z,46.43
2018-12-27T08:06:24.586Z,47.37
2018-12-27T08:09:09.551Z,46.43
2018-12-27T08:11:57.381Z,44.47
2018-12-27T08:14:43.252Z,45.80
2018-12-27T08:17:30.614Z,43.77
2018-12-27T08:20:15.896Z,42.47
2018-12-27T08:22:59.386Z,46.90
2018-12-27T08:25:49.527Z,47.40
2018-12-27T08:28:33.919Z,43.73
2018-12-27T08:31:20.411Z,49.83
2018-12-27T08:34:07.267Z,46.03
2018-12-27T08:36:56.536Z,44.60
2018-12-27T08:39:40.594Z,43.10
2018-12-27T08:42:28.274Z,46.30
2018-12-27T08:45:12.912Z,53.00
2018-12-27T08:47:59.465Z,48.03
2018-12-27T08:50:50.526Z,47.23
2018-12-27T08:53:37.619Z,47.63
2018-12-27T08:56:29.623Z,44.10
2018-12-27T08:59:19.556Z,44.33
2018-12-27T09:02:03.557Z,43.33
2018-12-27T09:04:51.344Z,43.13
2018-12-27T09:07:36.622Z,46.63
2018-12-27T09:10:23.471Z,49.97
2018-12-27T09:13:09.365Z,47.27
2018-12-27T09:16:01.040Z,47.83
2018-12-27T09:18:54.999Z,45.40
2018-12-27T09:21:48.644Z,45.60
2018-12-27T09:24:40.631Z,49.93
2018-12-27T09:27:35.572Z,50.20
2018-12-27T09:30:29.283Z,50.77
2018-12-27T09:33:19.162Z,52.73
2018-12-27T09:36:19.640Z,44.00
2018-12-27T09:39:08.382Z,46.17
2018-12-27T09:41:52.591Z,38.83
2018-12-27T09:44:42.002Z,38.23
2018-12-27T09:47:27.320Z,34.63
2018-12-27T09:50:18.115Z,34.13
2018-12-27T09:53:08.014Z,34.83
2018-12-27T09:55:58.508Z,37.03
2018-12-27T09:58:42.248Z,37.07
2018-12-27T10:01:26.616Z,40.67
2018-12-27T10:04:11.257Z,41.17
2018-12-27T10:06:55.614Z,46.23
2018-12-27T10:09:40.544Z,41.17
2018-12-27T10:12:22.613Z,65.43
2018-12-27T10:15:10.671Z,41.67
2018-12-27T10:17:56.063Z,48.70
2018-12-27T10:20:42.299Z,42.87
2018-12-27T10:23:33.415Z,43.43
2018-12-27T10:26:17.158Z,55.77
2018-12-27T10:29:06.419Z,84.07
2018-12-27T10:31:55.951Z,64.27
2018-12-27T10:34:39.381Z,36.40
2018-12-27T10:37:24.044Z,50.37
2018-12-27T10:40:10.552Z,40.93
2018-12-27T10:42:57.652Z,33.27
2018-12-27T10:45:46.067Z,39.57
2018-12-27T10:48:32.565Z,31.53
2018-12-27T10:51:18.147Z,36.60
2018-12-27T10:54:05.232Z,38.30
2018-12-27T10:56:56.732Z,37.20
2018-12-27T10:59:39.510Z,34.87
2018-12-27T11:02:25.465Z,33.27
2018-12-27T11:05:07.608Z,32.03
2018-12-27T11:07:53.139Z,32.83
2018-12-27T11:10:46.923Z,38.00
2018-12-27T11:13:32.720Z,35.17
2018-12-27T11:16:22.220Z,37.03
2018-12-27T11:19:08.379Z,36.20
2018-12-27T11:21:53.083Z,35.67
2018-12-27T11:24:39.540Z,39.53
2018-12-27T11:27:25.492Z,42.37
2018-12-27T11:30:11.752Z,37.97
2018-12-27T11:32:56.596Z,44.73
2018-12-27T11:35:43.412Z,34.73
2018-12-27T11:38:29.078Z,34.23
2018-12-27T11:41:15.230Z,34.17
2018-12-27T11:44:01.126Z,51.60
2018-12-27T11:47:02.631Z,43.10
2018-12-27T11:50:02.710Z,33.10
2018-12-27T11:52:53.161Z,35.93
2018-12-27T11:55:37.249Z,34.60
2018-12-27T11:58:27.758Z,33.03
2018-12-27T12:01:24.809Z,31.93
2018-12-27T12:04:09.687Z,40.87
2018-12-27T12:06:57.354Z,53.60
2018-12-27T12:09:49.694Z,42.13
2018-12-27T12:12:35.761Z,39.33
2018-12-27T12:15:19.678Z,69.83
2018-12-27T12:18:03.757Z,46.63
2018-12-27T12:21:06.222Z,46.57
2018-12-27T12:23:59.160Z,50.33
2018-12-27T12:26:46.610Z,45.53
2018-12-27T12:29:32.722Z,39.97
2018-12-27T12:32:22.728Z,43.10
2018-12-27T12:35:24.785Z,36.43
2018-12-27T12:38:26.251Z,44.60
2018-12-27T12:41:11.673Z,45.87
2018-12-27T12:43:57.244Z,38.67
2018-12-27T12:46:49.292Z,51.47
2018-12-27T12:49:51.034Z,48.70
2018-12-27T12:52:36.745Z,38.97
2018-12-27T12:55:26.309Z,37.13
2018-12-27T12:58:13.968Z,35.33
2018-12-27T13:01:04.500Z,53.20
2018-12-27T13:04:28.651Z,43.77
2018-12-27T13:07:30.691Z,47.40
2018-12-27T13:10:14.721Z,35.97
2018-12-27T13:13:08.789Z,36.87
2018-12-27T13:16:26.167Z,34.43
2018-12-27T13:19:13.173Z,32.27
2018-12-27T13:22:04.688Z,30.57
2018-12-27T13:24:53.661Z,33.93
2018-12-27T13:27:46.567Z,33.97
2018-12-27T13:30:33.719Z,35.40
2018-12-27T13:33:29.140Z,32.20
2018-12-27T13:36:25.364Z,32.43
2018-12-27T13:39:12.240Z,32.93
2018-12-27T13:42:08.579Z,35.57
2018-12-27T13:44:56.656Z,32.47
2018-12-27T13:47:48.047Z,29.10
2018-12-27T13:50:50.253Z,29.80
2018-12-27T13:53:48.398Z,30.87
2018-12-27T13:56:32.475Z,30.83
2018-12-27T13:59:36.142Z,28.30
2018-12-27T14:02:20.549Z,29.43
2018-12-27T14:08:21.819Z,27.77
2018-12-27T14:11:12.572Z,26.70
2018-12-27T14:14:00.302Z,124.53
2018-12-27T14:16:50.547Z,31.43
2018-12-27T14:19:50.557Z,30.07
2018-12-27T14:22:39.945Z,30.30
2018-12-27T14:25:26.652Z,29.00
2018-12-27T14:28:20.514Z,27.77
2018-12-27T14:31:05.963Z,28.23
2018-12-27T14:34:05.636Z,27.13
2018-12-27T14:36:53.849Z,27.03
2018-12-27T14:39:47.729Z,27.67
2018-12-27T14:42:36.289Z,27.73
2018-12-27T14:45:23.857Z,32.10
2018-12-27T14:48:16.418Z,32.93
2018-12-27T14:51:03.831Z,27.90
2018-12-27T14:53:56.804Z,29.53
2018-12-27T14:56:50.367Z,30.53
2018-12-27T14:59:39.686Z,27.07
2018-12-27T15:02:25.282Z,27.97
2018-12-27T15:05:15.844Z,30.73
2018-12-27T15:08:07.891Z,31.10
2018-12-27T15:10:54.867Z,29.23
2018-12-27T15:13:56.872Z,29.20
2018-12-27T15:16:45.748Z,65.33
2018-12-27T15:19:39.864Z,30.03
2018-12-27T15:22:28.884Z,26.90
2018-12-27T15:25:24.061Z,27.33
2018-12-27T15:28:20.914Z,27.03
2018-12-27T15:31:13.597Z,89.37
2018-12-27T15:34:04.726Z,47.63
2018-12-27T15:36:55.814Z,26.30
2018-12-27T15:39:45.871Z,27.43
2018-12-27T15:42:50.336Z,27.07
2018-12-27T15:45:40.832Z,27.07
2018-12-27T15:48:36.505Z,29.43
2018-12-27T15:54:52.219Z,27.70
2018-12-27T15:57:50.741Z,26.50
2018-12-27T16:00:37.590Z,24.93
2018-12-27T16:03:36.349Z,26.03
2018-12-27T16:06:34.004Z,25.57
2018-12-27T16:09:27.904Z,25.47
2018-12-27T16:12:13.679Z,24.87
2018-12-27T16:15:02.336Z,22.90
2018-12-27T16:17:49.461Z,22.73
2018-12-27T16:20:40.654Z,23.67
2018-12-27T16:23:35.670Z,23.17
2018-12-27T16:29:33.560Z,24.43
2018-12-27T16:32:29.593Z,26.30
2018-12-27T16:35:22.029Z,24.77
2018-12-27T16:38:22.958Z,22.07
2018-12-27T16:41:06.872Z,23.53
2018-12-27T16:43:49.741Z,21.43
2018-12-27T16:46:40.923Z,19.30
2018-12-27T16:49:28.230Z,20.67
2018-12-27T16:52:16.980Z,19.67
2018-12-27T16:55:10.761Z,20.33
2018-12-27T16:57:53.973Z,21.13
2018-12-27T17:00:44.700Z,21.60
2018-12-27T17:03:38.263Z,21.40
2018-12-27T17:06:24.505Z,20.00
2018-12-27T17:09:10.705Z,17.03
2018-12-27T17:12:02.969Z,17.93
2018-12-27T17:14:51.345Z,16.87
2018-12-27T17:17:34.475Z,16.77
2018-12-27T17:20:19.749Z,16.37
2018-12-27T17:23:14.897Z,17.83
2018-12-27T17:26:01.009Z,15.30
2018-12-27T17:28:55.851Z,15.00
2018-12-27T17:31:52.959Z,14.87
2018-12-27T17:34:42.694Z,15.20
2018-12-27T17:37:32.921Z,15.40
2018-12-27T17:40:25.961Z,14.23
2018-12-27T17:43:20.673Z,13.40
2018-12-27T17:46:06.562Z,13.40
2018-12-27T17:48:54.872Z,13.63
2018-12-27T17:51:46.899Z,13.13
2018-12-27T17:54:35.227Z,13.33
2018-12-27T17:57:24.021Z,13.40
2018-12-27T18:00:27.975Z,14.17
2018-12-27T18:03:13.500Z,13.87
2018-12-27T18:06:01.855Z,13.90
2018-12-27T18:08:51.741Z,14.07
2018-12-27T18:11:38.588Z,15.80
2018-12-27T18:14:29.398Z,15.47
2018-12-27T18:17:14.368Z,16.20
2018-12-27T18:19:58.028Z,16.60
2018-12-27T18:22:51.317Z,17.23
2018-12-27T18:25:36.641Z,17.03
2018-12-27T18:28:32.313Z,16.07
2018-12-27T18:31:18.820Z,15.47
2018-12-27T18:34:08.062Z,17.30
2018-12-27T18:36:55.873Z,17.17
2018-12-27T18:39:47.549Z,17.80
2018-12-27T18:42:39.104Z,17.83
2018-12-27T18:45:27.974Z,18.13
2018-12-27T18:48:15.706Z,18.50
2018-12-27T18:51:00.678Z,20.30
2018-12-27T18:53:44.722Z,19.73
2018-12-27T18:56:42.076Z,20.73
2018-12-27T18:59:27.869Z,21.53
2018-12-27T19:02:11.875Z,22.57
2018-12-27T19:04:59.956Z,23.00
2018-12-27T19:07:45.073Z,21.70
2018-12-27T19:10:30.087Z,23.97
2018-12-27T19:13:32.633Z,24.40
2018-12-27T19:16:20.720Z,24.97
2018-12-27T19:19:04.726Z,26.17
2018-12-27T19:22:09.971Z,26.20
2018-12-27T19:25:04.772Z,29.37
2018-12-27T19:27:49.099Z,30.97
2018-12-27T19:30:43.961Z,29.80
2018-12-27T19:33:30.086Z,29.97
2018-12-27T19:36:14.469Z,30.90
2018-12-27T19:38:57.951Z,29.60
2018-12-27T19:41:48.757Z,30.67
2018-12-27T19:44:34.028Z,31.53
2018-12-27T19:47:19.117Z,31.13
2018-12-27T19:50:07.650Z,32.53
2018-12-27T19:52:51.753Z,32.17
2018-12-27T19:55:39.432Z,34.03
2018-12-27T19:58:23.624Z,32.80
2018-12-27T20:01:11.125Z,33.13
2018-12-27T20:04:00.134Z,32.90
2018-12-27T20:06:46.064Z,34.03
2018-12-27T20:09:32.532Z,33.57
2018-12-27T20:12:15.955Z,34.90
2018-12-27T20:15:04.923Z,34.77
2018-12-27T20:17:49.007Z,34.37
2018-12-27T20:20:33.976Z,35.47
2018-12-27T20:23:18.944Z,36.67
2018-12-27T20:26:06.307Z,34.63
2018-12-27T20:28:51.961Z,36.07
2018-12-27T20:31:41.483Z,35.40
2018-12-27T20:34:29.524Z,34.80
2018-12-27T20:37:14.493Z,35.17
2018-12-27T20:39:59.818Z,34.17
2018-12-27T20:42:46.933Z,34.63
2018-12-27T20:45:32.469Z,35.23
2018-12-27T20:48:27.580Z,36.37
2018-12-27T20:51:26.119Z,34.80
2018-12-27T20:54:10.395Z,35.70
2018-12-27T20:56:54.512Z,35.60
2018-12-27T20:59:40.967Z,35.13
2018-12-27T21:02:29.626Z,35.50
2018-12-27T21:05:12.487Z,36.33
2018-12-27T21:08:02.983Z,35.23
2018-12-27T21:10:48.829Z,37.70
2018-12-27T21:13:31.957Z,36.77
2018-12-27T21:16:16.043Z,35.03
2018-12-27T21:19:06.851Z,35.43
2018-12-27T21:21:49.622Z,37.50
2018-12-27T21:24:35.514Z,37.27
2018-12-27T21:27:20.832Z,36.03
2018-12-27T21:30:12.559Z,36.40
2018-12-27T21:32:59.021Z,37.87
2018-12-27T21:35:47.982Z,37.87
2018-12-27T21:38:38.480Z,37.30
2018-12-27T21:41:22.880Z,37.63
2018-12-27T21:44:07.850Z,37.67
2018-12-27T21:46:55.580Z,38.20
2018-12-27T21:49:40.210Z,37.73
2018-12-27T21:52:27.974Z,37.13
2018-12-27T21:55:10.792Z,39.17
2018-12-27T21:58:02.215Z,37.17
2018-12-27T22:00:50.871Z,36.80
2018-12-27T22:03:33.023Z,39.63
2018-12-27T22:06:17.072Z,39.93
2018-12-27T22:09:14.185Z,38.00
2018-12-27T22:12:08.513Z,39.53
2018-12-27T22:14:56.868Z,37.80
2018-12-27T22:17:41.881Z,40.47
2018-12-27T22:20:40.622Z,40.53
2018-12-27T22:23:35.240Z,39.77
2018-12-27T22:26:21.234Z,39.50
2018-12-27T22:29:08.237Z,41.07
2018-12-27T22:31:52.262Z,40.07
2018-12-27T22:34:42.564Z,38.60
2018-12-27T22:37:27.943Z,41.60
2018-12-27T22:40:13.524Z,40.80
2018-12-27T22:42:56.955Z,39.17
2018-12-27T22:45:41.006Z,38.57
2018-12-27T22:48:28.172Z,39.87
2018-12-27T22:51:18.223Z,40.63
2018-12-27T22:54:09.026Z,41.80
2018-12-27T22:56:53.306Z,41.03
2018-12-27T22:59:44.629Z,39.57
2018-12-27T23:02:29.917Z,41.73
2018-12-27T23:05:17.946Z,41.70
2018-12-27T23:08:00.119Z,41.23
2018-12-27T23:10:43.541Z,42.10
2018-12-27T23:13:34.082Z,40.37
2018-12-27T23:16:20.893Z,41.37
2018-12-27T23:19:07.097Z,42.70
2018-12-27T23:21:50.781Z,42.00
2018-12-27T23:24:33.030Z,42.27
2018-12-27T23:27:17.957Z,41.73
2018-12-27T23:30:01.080Z,43.00
2018-12-27T23:32:47.016Z,41.43
2018-12-27T23:35:30.754Z,43.10
2018-12-27T23:38:16.029Z,41.93
2018-12-27T23:41:00.085Z,43.07
2018-12-27T23:43:45.045Z,41.03
2018-12-27T23:46:54.300Z,41.63
2018-12-27T23:49:55.179Z,166.60
2018-12-27T23:52:42.300Z,45.60
2018-12-27T23:55:24.807Z,43.80
2018-12-27T23:58:13.309Z,55.93
